createdAt,value
2019-03-26T00:00:56.643Z,43.04
2019-03-26T00:01:57.115Z,43.05
2019-03-26T00:02:57.585Z,43.08
2019-03-26T00:04:05.585Z,43.09
2019-03-26T00:04:58.567Z,43.07
2019-03-26T00:05:59.000Z,43.05
2019-03-26T00:06:59.473Z,43.07
2019-03-26T00:07:59.945Z,43.08
2019-03-26T00:09:00.416Z,43.06
2019-03-26T00:10:00.888Z,43.06
2019-03-26T00:11:01.359Z,43.08
2019-03-26T00:12:01.830Z,43.10
2019-03-26T00:13:02.303Z,43.10
2019-03-26T00:14:02.776Z,43.08
2019-03-26T00:15:03.245Z,43.06
2019-03-26T00:16:03.717Z,43.07
2019-03-26T00:17:04.197Z,43.10
2019-03-26T00:18:04.659Z,43.13
2019-03-26T00:19:05.130Z,43.08
2019-03-26T00:20:05.604Z,43.09
2019-03-26T00:21:06.077Z,43.09
2019-03-26T00:22:06.546Z,43.11
2019-03-26T00:23:07.019Z,43.11
2019-03-26T00:24:07.490Z,43.16
2019-03-26T00:25:07.966Z,43.10
2019-03-26T00:26:08.437Z,43.12
2019-03-26T00:27:08.908Z,43.11
2019-03-26T00:28:09.377Z,43.11
2019-03-26T00:29:09.848Z,43.10
2019-03-26T00:30:10.325Z,43.09
2019-03-26T00:31:10.793Z,43.07
2019-03-26T00:32:11.266Z,43.11
2019-03-26T00:33:11.738Z,43.14
2019-03-26T00:34:19.333Z,43.12
2019-03-26T00:35:12.683Z,43.11
2019-03-26T00:36:13.151Z,43.12
2019-03-26T00:37:13.626Z,43.13
2019-03-26T00:38:14.099Z,43.13
2019-03-26T00:39:14.567Z,43.14
2019-03-26T00:40:15.042Z,43.17
2019-03-26T00:41:15.514Z,43.15
2019-03-26T00:42:15.983Z,43.13
2019-03-26T00:43:16.458Z,43.15
2019-03-26T00:44:16.926Z,43.16
2019-03-26T00:45:17.399Z,43.13
2019-03-26T00:46:17.871Z,43.17
2019-03-26T00:47:18.341Z,43.18
2019-03-26T00:48:18.815Z,43.18
2019-03-26T00:49:19.288Z,43.17
2019-03-26T00:50:19.759Z,43.16
2019-03-26T00:51:20.231Z,43.17
2019-03-26T00:52:20.704Z,43.18
2019-03-26T00:53:21.174Z,43.17
2019-03-26T00:54:21.648Z,43.17
2019-03-26T00:55:23.243Z,43.19
2019-03-26T00:56:22.590Z,43.12
2019-03-26T00:57:23.061Z,43.15
2019-03-26T00:58:23.535Z,43.15
2019-03-26T00:59:24.005Z,43.16
2019-03-26T01:00:24.478Z,43.17
2019-03-26T01:01:24.950Z,43.19
2019-03-26T01:02:25.479Z,43.18
2019-03-26T01:03:25.897Z,43.15
2019-03-26T01:04:32.794Z,43.13
2019-03-26T01:05:26.878Z,43.13
2019-03-26T01:06:27.313Z,43.14
2019-03-26T01:07:27.779Z,43.14
2019-03-26T01:08:28.256Z,43.16
2019-03-26T01:09:28.729Z,43.14
2019-03-26T01:10:29.198Z,43.14
2019-03-26T01:11:29.669Z,43.16
2019-03-26T01:12:31.271Z,43.17
2019-03-26T01:13:30.615Z,43.15
2019-03-26T01:14:31.086Z,43.14
2019-03-26T01:15:31.556Z,43.18
2019-03-26T01:16:32.032Z,43.19
2019-03-26T01:17:32.501Z,43.22
2019-03-26T01:18:32.975Z,43.16
2019-03-26T01:19:33.446Z,43.20
2019-03-26T01:20:33.917Z,43.18
2019-03-26T01:21:34.392Z,43.21
2019-03-26T01:22:34.863Z,43.18
2019-03-26T01:23:35.333Z,43.16
2019-03-26T01:24:35.806Z,43.18
2019-03-26T01:25:39.400Z,43.22
2019-03-26T01:26:36.751Z,43.17
2019-03-26T01:27:37.219Z,43.18
2019-03-26T01:28:37.693Z,43.19
2019-03-26T01:29:38.165Z,43.16
2019-03-26T01:30:38.640Z,43.18
2019-03-26T01:31:39.109Z,43.15
2019-03-26T01:32:39.582Z,43.16
2019-03-26T01:33:40.070Z,43.19
2019-03-26T01:34:45.875Z,43.16
2019-03-26T01:35:40.997Z,43.14
2019-03-26T01:36:41.471Z,43.13
2019-03-26T01:37:41.941Z,43.14
2019-03-26T01:38:42.413Z,43.14
2019-03-26T01:39:42.889Z,43.15
2019-03-26T01:40:43.357Z,43.21
2019-03-26T01:41:43.830Z,43.18
2019-03-26T01:42:44.302Z,43.16
2019-03-26T01:43:44.778Z,43.15
2019-03-26T01:44:45.247Z,43.17
2019-03-26T01:45:45.721Z,43.16
2019-03-26T01:46:46.191Z,43.14
2019-03-26T01:47:46.663Z,43.16
2019-03-26T01:48:47.132Z,43.17
2019-03-26T01:49:47.608Z,43.17
2019-03-26T01:50:48.078Z,43.18
2019-03-26T01:51:48.550Z,43.18
2019-03-26T01:52:49.022Z,43.15
2019-03-26T01:53:49.496Z,43.15
2019-03-26T01:54:49.967Z,43.18
2019-03-26T01:55:50.438Z,43.18
2019-03-26T01:56:50.913Z,43.15
2019-03-26T01:57:51.383Z,43.14
2019-03-26T01:58:51.859Z,43.13
2019-03-26T01:59:52.327Z,43.18
2019-03-26T02:00:52.798Z,43.18
2019-03-26T02:01:53.271Z,43.20
2019-03-26T02:02:53.742Z,43.18
2019-03-26T02:03:54.217Z,43.17
2019-03-26T02:05:00.219Z,43.24
2019-03-26T02:05:55.158Z,43.19
2019-03-26T02:06:55.633Z,43.17
2019-03-26T02:07:56.106Z,43.17
2019-03-26T02:08:56.777Z,43.15
2019-03-26T02:09:57.048Z,43.18
2019-03-26T02:10:57.520Z,43.15
2019-03-26T02:11:57.991Z,43.15
2019-03-26T02:12:58.462Z,43.15
2019-03-26T02:13:58.948Z,43.15
2019-03-26T02:14:59.408Z,43.15
2019-03-26T02:15:59.878Z,43.12
2019-03-26T02:17:00.350Z,43.14
2019-03-26T02:18:00.930Z,43.14
2019-03-26T02:19:01.297Z,43.13
2019-03-26T02:20:01.771Z,43.09
2019-03-26T02:21:02.239Z,43.11
2019-03-26T02:22:02.719Z,43.16
2019-03-26T02:23:03.188Z,43.15
2019-03-26T02:24:03.707Z,43.15
2019-03-26T02:25:04.127Z,43.16
2019-03-26T02:26:04.600Z,43.17
2019-03-26T02:27:05.071Z,43.15
2019-03-26T02:28:05.544Z,43.15
2019-03-26T02:29:06.016Z,43.14
2019-03-26T02:30:06.489Z,43.16
2019-03-26T02:31:06.962Z,43.16
2019-03-26T02:32:07.429Z,43.16
2019-03-26T02:33:07.903Z,43.13
2019-03-26T02:34:08.376Z,43.13
2019-03-26T02:35:17.708Z,43.17
2019-03-26T02:36:09.392Z,43.17
2019-03-26T02:37:09.794Z,43.17
2019-03-26T02:38:10.264Z,43.14
2019-03-26T02:39:10.737Z,43.14
2019-03-26T02:40:11.207Z,43.14
2019-03-26T02:41:11.677Z,43.15
2019-03-26T02:42:12.152Z,43.13
2019-03-26T02:43:12.628Z,43.16
2019-03-26T02:44:13.196Z,43.16
2019-03-26T02:45:13.571Z,43.11
2019-03-26T02:46:14.077Z,43.13
2019-03-26T02:47:14.530Z,43.12
2019-03-26T02:48:14.984Z,43.10
2019-03-26T02:49:15.458Z,43.15
2019-03-26T02:50:15.930Z,43.17
2019-03-26T02:51:16.403Z,43.19
2019-03-26T02:52:16.874Z,43.16
2019-03-26T02:53:17.353Z,43.13
2019-03-26T02:54:17.816Z,43.14
2019-03-26T02:55:18.289Z,43.11
2019-03-26T02:56:18.761Z,43.12
2019-03-26T02:57:19.231Z,43.14
2019-03-26T02:58:19.709Z,43.16
2019-03-26T02:59:20.178Z,43.13
2019-03-26T03:00:20.648Z,43.13
2019-03-26T03:01:21.121Z,43.12
2019-03-26T03:02:21.596Z,43.07
2019-03-26T03:03:22.073Z,43.07
2019-03-26T03:04:22.538Z,43.09
2019-03-26T03:05:35.034Z,43.10
2019-03-26T03:06:23.482Z,43.08
2019-03-26T03:07:23.953Z,43.08
2019-03-26T03:08:24.426Z,43.10
2019-03-26T03:09:24.896Z,43.11
2019-03-26T03:10:25.372Z,43.07
2019-03-26T03:11:25.883Z,43.11
2019-03-26T03:12:26.318Z,43.12
2019-03-26T03:13:26.784Z,43.15
2019-03-26T03:14:27.268Z,43.09
2019-03-26T03:15:27.729Z,43.07
2019-03-26T03:16:28.201Z,43.07
2019-03-26T03:17:28.675Z,43.10
2019-03-26T03:18:29.148Z,43.17
2019-03-26T03:19:29.621Z,43.10
2019-03-26T03:20:30.092Z,43.12
2019-03-26T03:21:30.563Z,43.13
2019-03-26T03:22:31.056Z,43.10
2019-03-26T03:23:31.511Z,43.10
2019-03-26T03:24:31.977Z,43.12
2019-03-26T03:25:32.450Z,43.14
2019-03-26T03:26:32.922Z,43.12
2019-03-26T03:27:33.395Z,43.16
2019-03-26T03:28:33.868Z,43.15
2019-03-26T03:29:34.340Z,43.16
2019-03-26T03:30:34.811Z,43.13
2019-03-26T03:31:35.286Z,43.13
2019-03-26T03:32:35.758Z,43.12
2019-03-26T03:33:36.227Z,43.14
2019-03-26T03:34:36.727Z,43.11
2019-03-26T03:35:51.227Z,43.12
2019-03-26T03:36:37.651Z,43.12
2019-03-26T03:37:38.123Z,43.13
2019-03-26T03:38:41.326Z,43.18
2019-03-26T03:39:39.119Z,43.18
2019-03-26T03:40:39.540Z,43.19
2019-03-26T03:41:40.011Z,43.11
2019-03-26T03:42:40.487Z,43.14
2019-03-26T03:43:40.964Z,43.13
2019-03-26T03:44:41.427Z,43.12
2019-03-26T03:45:41.900Z,43.11
2019-03-26T03:46:42.374Z,43.12
2019-03-26T03:47:42.851Z,43.09
2019-03-26T03:48:43.336Z,43.10
2019-03-26T03:49:43.789Z,43.13
2019-03-26T03:50:44.261Z,43.09
2019-03-26T03:51:44.734Z,43.08
2019-03-26T03:52:45.204Z,43.08
2019-03-26T03:53:45.678Z,43.10
2019-03-26T03:54:46.158Z,43.06
2019-03-26T03:55:46.621Z,43.16
2019-03-26T03:56:47.092Z,43.12
2019-03-26T03:57:47.566Z,43.10
2019-03-26T03:58:48.039Z,43.09
2019-03-26T03:59:48.512Z,43.07
2019-03-26T04:00:48.984Z,43.07
2019-03-26T04:01:49.455Z,43.10
2019-03-26T04:02:49.929Z,43.07
2019-03-26T04:03:50.400Z,43.09
2019-03-26T04:04:50.862Z,43.08
2019-03-26T04:06:07.839Z,43.08
2019-03-26T04:06:51.821Z,43.07
2019-03-26T04:07:52.279Z,43.08
2019-03-26T04:08:52.751Z,43.06
2019-03-26T04:09:53.223Z,43.08
2019-03-26T04:10:53.697Z,43.06
2019-03-26T04:11:54.167Z,43.09
2019-03-26T04:12:54.642Z,43.09
2019-03-26T04:13:55.112Z,43.07
2019-03-26T04:14:55.635Z,43.05
2019-03-26T04:15:56.055Z,43.05
2019-03-26T04:16:56.530Z,43.04
2019-03-26T04:17:57.001Z,43.08
2019-03-26T04:18:57.475Z,43.05
2019-03-26T04:19:57.944Z,43.07
2019-03-26T04:20:58.417Z,43.01
2019-03-26T04:21:58.890Z,43.02
2019-03-26T04:22:59.365Z,43.10
2019-03-26T04:23:59.835Z,43.07
2019-03-26T04:25:00.469Z,43.07
2019-03-26T04:26:00.778Z,43.08
2019-03-26T04:27:01.250Z,43.09
2019-03-26T04:28:01.724Z,43.08
2019-03-26T04:29:02.194Z,43.10
2019-03-26T04:30:02.721Z,43.07
2019-03-26T04:31:03.144Z,43.08
2019-03-26T04:32:03.610Z,43.11
2019-03-26T04:33:04.085Z,43.12
2019-03-26T04:34:04.556Z,43.13
2019-03-26T04:35:05.032Z,43.10
2019-03-26T04:36:05.498Z,43.11
2019-03-26T04:37:05.975Z,43.13
2019-03-26T04:38:06.442Z,43.08
2019-03-26T04:39:06.915Z,43.09
2019-03-26T04:40:07.389Z,43.07
2019-03-26T04:41:07.858Z,43.11
2019-03-26T04:42:08.330Z,43.06
2019-03-26T04:43:08.809Z,43.08
2019-03-26T04:44:09.276Z,43.05
2019-03-26T04:45:09.747Z,43.08
2019-03-26T04:46:10.220Z,43.10
2019-03-26T04:47:10.695Z,43.07
2019-03-26T04:48:11.164Z,43.11
2019-03-26T04:49:11.636Z,43.08
2019-03-26T04:50:12.109Z,43.12
2019-03-26T04:51:12.581Z,43.09
2019-03-26T04:52:13.054Z,43.07
2019-03-26T04:57:15.424Z,43.10
2019-03-26T04:58:15.892Z,43.09
2019-03-26T04:59:16.366Z,43.09
2019-03-26T05:00:16.840Z,43.08
2019-03-26T05:01:17.312Z,43.06
2019-03-26T05:02:17.783Z,43.08
2019-03-26T05:03:18.257Z,43.04
2019-03-26T05:04:18.728Z,43.04
2019-03-26T05:05:19.249Z,43.05
2019-03-26T05:06:19.674Z,43.04
2019-03-26T05:07:20.146Z,43.04
2019-03-26T05:08:20.617Z,43.04
2019-03-26T05:09:21.088Z,43.06
2019-03-26T05:10:21.612Z,43.08
2019-03-26T05:11:22.034Z,43.06
2019-03-26T05:12:22.506Z,43.06
2019-03-26T05:13:22.977Z,43.03
2019-03-26T05:14:23.451Z,43.06
2019-03-26T05:15:23.922Z,43.02
2019-03-26T05:16:24.395Z,43.00
2019-03-26T05:17:24.867Z,43.02
2019-03-26T05:18:25.338Z,42.99
2019-03-26T05:19:25.811Z,43.02
2019-03-26T05:20:26.339Z,43.03
2019-03-26T05:21:26.757Z,43.05
2019-03-26T05:22:27.227Z,43.05
2019-03-26T05:23:27.701Z,43.08
2019-03-26T05:24:28.174Z,43.06
2019-03-26T05:25:28.694Z,43.09
2019-03-26T05:26:29.130Z,43.05
2019-03-26T05:27:29.588Z,43.08
2019-03-26T05:28:30.063Z,43.12
2019-03-26T05:29:30.533Z,43.07
2019-03-26T05:30:33.145Z,43.11
2019-03-26T05:31:31.478Z,43.07
2019-03-26T05:32:31.957Z,43.07
2019-03-26T05:33:32.420Z,43.06
2019-03-26T05:34:32.896Z,43.07
2019-03-26T05:35:33.366Z,43.07
2019-03-26T05:36:33.838Z,43.03
2019-03-26T05:37:34.309Z,43.08
2019-03-26T05:38:34.783Z,43.08
2019-03-26T05:39:35.256Z,43.05
2019-03-26T05:40:35.778Z,43.03
2019-03-26T05:41:36.202Z,43.03
2019-03-26T05:42:36.671Z,43.04
2019-03-26T05:43:37.145Z,43.02
2019-03-26T05:44:37.616Z,43.03
2019-03-26T05:45:38.088Z,43.08
2019-03-26T05:46:38.563Z,43.03
2019-03-26T05:47:39.033Z,43.02
2019-03-26T05:48:39.507Z,43.01
2019-03-26T05:49:39.977Z,43.02
2019-03-26T05:50:40.499Z,42.98
2019-03-26T05:51:40.928Z,42.98
2019-03-26T05:52:41.398Z,43.00
2019-03-26T05:53:41.868Z,42.98
2019-03-26T05:54:42.338Z,42.96
2019-03-26T05:55:42.812Z,43.02
2019-03-26T05:57:43.758Z,43.13
2019-03-26T05:58:44.226Z,43.26
2019-03-26T05:59:44.698Z,43.35
2019-03-26T06:00:45.171Z,43.39
2019-03-26T06:01:45.643Z,43.43
2019-03-26T06:02:46.117Z,43.56
2019-03-26T06:03:46.588Z,43.62
2019-03-26T06:04:47.060Z,43.65
2019-03-26T06:05:47.530Z,43.74
2019-03-26T06:06:48.001Z,43.85
2019-03-26T06:07:48.475Z,43.94
2019-03-26T06:08:48.947Z,44.07
2019-03-26T06:09:49.415Z,44.16
2019-03-26T06:10:49.887Z,44.25
2019-03-26T06:11:50.355Z,44.35
2019-03-26T06:12:50.834Z,44.44
2019-03-26T06:13:51.296Z,44.51
2019-03-26T06:14:51.767Z,44.61
2019-03-26T06:15:52.235Z,44.67
2019-03-26T06:16:52.706Z,44.73
2019-03-26T06:17:53.177Z,44.79
2019-03-26T06:18:53.643Z,44.81
2019-03-26T06:19:54.113Z,44.85
2019-03-26T06:20:54.630Z,44.89
2019-03-26T06:21:55.048Z,44.94
2019-03-26T06:22:55.517Z,44.92
2019-03-26T06:23:55.985Z,44.90
2019-03-26T06:24:56.462Z,44.90
2019-03-26T06:25:56.924Z,44.86
2019-03-26T06:26:57.392Z,44.82
2019-03-26T06:27:57.858Z,44.69
2019-03-26T06:29:01.082Z,44.48
2019-03-26T06:29:58.792Z,44.35
2019-03-26T06:30:59.262Z,44.23
2019-03-26T06:31:59.739Z,44.11
2019-03-26T06:33:00.197Z,43.99
2019-03-26T06:34:00.665Z,43.90
2019-03-26T06:35:01.132Z,43.79
2019-03-26T06:36:01.604Z,43.68
2019-03-26T06:37:02.068Z,43.64
2019-03-26T06:38:02.535Z,43.54
2019-03-26T06:39:03.003Z,43.48
2019-03-26T06:40:03.473Z,43.41
2019-03-26T06:41:03.991Z,43.32
2019-03-26T06:42:04.415Z,43.31
2019-03-26T06:43:04.878Z,43.25
2019-03-26T06:44:05.348Z,43.18
2019-03-26T06:45:05.814Z,43.13
2019-03-26T06:46:06.282Z,43.07
2019-03-26T06:47:06.750Z,43.01
2019-03-26T06:48:07.223Z,42.98
2019-03-26T06:49:07.687Z,42.94
2019-03-26T06:50:08.160Z,42.93
2019-03-26T06:51:08.680Z,42.84
2019-03-26T06:52:09.095Z,42.81
2019-03-26T06:53:09.562Z,42.77
2019-03-26T06:54:10.030Z,42.76
2019-03-26T06:55:10.501Z,42.73
2019-03-26T06:56:11.020Z,42.75
2019-03-26T06:57:11.440Z,42.69
2019-03-26T06:58:11.913Z,42.69
2019-03-26T06:59:12.378Z,42.67
2019-03-26T07:00:12.857Z,42.68
2019-03-26T07:01:13.315Z,42.65
2019-03-26T07:02:13.784Z,42.64
2019-03-26T07:03:14.255Z,42.63
2019-03-26T07:04:14.725Z,42.61
2019-03-26T07:05:15.196Z,42.62
2019-03-26T07:06:15.664Z,42.58
2019-03-26T07:07:16.132Z,42.58
2019-03-26T07:08:16.604Z,42.58
2019-03-26T07:09:17.077Z,42.61
2019-03-26T07:10:17.544Z,42.58
2019-03-26T07:11:18.013Z,42.60
2019-03-26T07:12:18.484Z,42.61
2019-03-26T07:13:18.955Z,42.56
2019-03-26T07:14:19.424Z,42.58
2019-03-26T07:15:19.897Z,42.57
2019-03-26T07:16:20.416Z,42.57
2019-03-26T07:17:20.835Z,42.60
2019-03-26T07:18:21.302Z,42.60
2019-03-26T07:19:21.777Z,42.62
2019-03-26T07:20:22.249Z,42.64
2019-03-26T07:21:22.716Z,42.60
2019-03-26T07:22:23.185Z,42.59
2019-03-26T07:23:23.649Z,42.62
2019-03-26T07:24:24.320Z,42.65
2019-03-26T07:25:24.589Z,42.65
2019-03-26T07:26:25.132Z,42.69
2019-03-26T07:27:25.532Z,42.67
2019-03-26T07:28:26.001Z,42.67
2019-03-26T07:29:26.482Z,42.67
2019-03-26T07:30:27.148Z,42.67
2019-03-26T07:31:27.432Z,42.65
2019-03-26T07:32:27.883Z,42.64
2019-03-26T07:33:28.354Z,42.64
2019-03-26T07:34:28.831Z,42.69
2019-03-26T07:35:29.294Z,42.65
2019-03-26T07:36:29.772Z,42.65
2019-03-26T07:37:30.240Z,42.70
2019-03-26T07:38:30.708Z,42.74
2019-03-26T07:39:31.383Z,42.70
2019-03-26T07:40:31.655Z,42.74
2019-03-26T07:41:32.124Z,42.72
2019-03-26T07:42:32.593Z,42.72
2019-03-26T07:43:33.065Z,42.70
2019-03-26T07:44:33.629Z,42.75
2019-03-26T07:45:34.011Z,42.75
2019-03-26T07:46:34.476Z,42.72
2019-03-26T07:47:34.948Z,42.76
2019-03-26T07:48:35.420Z,42.79
2019-03-26T07:49:35.891Z,42.77
2019-03-26T07:50:36.361Z,42.80
2019-03-26T07:51:36.842Z,42.78
2019-03-26T07:52:37.305Z,42.80
2019-03-26T07:53:37.776Z,42.79
2019-03-26T07:54:38.247Z,42.79
2019-03-26T07:55:38.760Z,42.80
2019-03-26T07:56:39.192Z,42.79
2019-03-26T07:57:39.660Z,42.77
2019-03-26T07:58:40.136Z,42.80
2019-03-26T07:59:40.602Z,42.81
2019-03-26T08:00:41.073Z,42.83
2019-03-26T08:01:41.545Z,42.83
2019-03-26T08:02:42.016Z,42.81
2019-03-26T08:03:42.488Z,42.85
2019-03-26T08:04:42.960Z,42.83
2019-03-26T08:05:43.430Z,42.85
2019-03-26T08:06:43.901Z,42.87
2019-03-26T08:07:57.526Z,42.89
2019-03-26T08:08:44.845Z,42.90
2019-03-26T08:09:45.317Z,42.88
2019-03-26T08:10:45.787Z,42.86
2019-03-26T08:11:46.260Z,42.88
2019-03-26T08:12:46.733Z,42.87
2019-03-26T08:13:47.216Z,42.88
2019-03-26T08:14:47.688Z,42.88
2019-03-26T08:15:48.204Z,42.86
2019-03-26T08:16:48.618Z,42.86
2019-03-26T08:17:49.091Z,42.89
2019-03-26T08:18:49.563Z,42.89
2019-03-26T08:19:50.030Z,42.88
2019-03-26T08:20:50.510Z,42.90
2019-03-26T08:21:50.974Z,42.94
2019-03-26T08:22:51.653Z,42.92
2019-03-26T08:23:52.198Z,42.91
2019-03-26T08:24:52.390Z,42.92
2019-03-26T08:25:52.863Z,42.94
2019-03-26T08:26:53.363Z,42.94
2019-03-26T08:27:53.805Z,42.92
2019-03-26T08:28:54.277Z,42.93
2019-03-26T08:29:54.753Z,42.89
2019-03-26T08:30:55.220Z,42.89
2019-03-26T08:31:55.694Z,42.87
2019-03-26T08:32:56.163Z,42.93
2019-03-26T08:33:56.634Z,42.94
2019-03-26T08:34:57.105Z,42.92
2019-03-26T08:35:57.578Z,42.94
2019-03-26T08:38:11.307Z,42.98
2019-03-26T08:38:58.990Z,42.96
2019-03-26T08:39:59.463Z,42.92
2019-03-26T08:40:59.935Z,42.96
2019-03-26T08:42:00.406Z,42.95
2019-03-26T08:43:00.880Z,42.95
2019-03-26T08:44:01.350Z,42.95
2019-03-26T08:45:01.832Z,42.94
2019-03-26T08:46:02.362Z,42.93
2019-03-26T08:47:02.772Z,42.91
2019-03-26T08:48:03.245Z,42.93
2019-03-26T08:49:03.716Z,42.96
2019-03-26T08:50:04.187Z,42.99
2019-03-26T08:51:04.659Z,42.98
2019-03-26T08:52:05.132Z,42.95
2019-03-26T08:53:05.603Z,42.97
2019-03-26T08:54:06.076Z,42.95
2019-03-26T08:55:06.546Z,42.95
2019-03-26T08:56:07.022Z,43.02
2019-03-26T08:57:07.492Z,43.00
2019-03-26T08:58:07.963Z,42.95
2019-03-26T08:59:08.636Z,42.96
2019-03-26T09:00:09.106Z,42.99
2019-03-26T09:01:09.379Z,42.97
2019-03-26T09:02:09.850Z,42.96
2019-03-26T09:03:10.321Z,43.01
2019-03-26T09:04:10.794Z,43.03
2019-03-26T09:05:11.266Z,43.08
2019-03-26T09:06:11.736Z,43.01
2019-03-26T09:07:12.207Z,43.00
2019-03-26T09:08:24.782Z,42.99
2019-03-26T09:09:13.150Z,42.98
2019-03-26T09:10:13.624Z,42.99
2019-03-26T09:11:14.095Z,43.01
2019-03-26T09:12:14.575Z,42.98
2019-03-26T09:13:15.139Z,42.98
2019-03-26T09:14:15.509Z,42.98
2019-03-26T09:15:15.982Z,42.98
2019-03-26T09:16:16.458Z,42.97
2019-03-26T09:17:19.707Z,42.98
2019-03-26T09:18:17.739Z,43.02
2019-03-26T09:19:17.867Z,43.00
2019-03-26T09:20:18.341Z,42.99
2019-03-26T09:21:18.811Z,43.01
2019-03-26T09:22:19.287Z,43.01
2019-03-26T09:23:19.957Z,42.99
2019-03-26T09:24:20.228Z,43.00
2019-03-26T09:25:20.703Z,43.00
2019-03-26T09:26:21.172Z,43.00
2019-03-26T09:27:21.643Z,42.98
2019-03-26T09:28:22.116Z,43.00
2019-03-26T09:29:22.587Z,42.98
2019-03-26T09:30:23.060Z,42.98
2019-03-26T09:31:23.531Z,43.04
2019-03-26T09:32:24.001Z,43.00
2019-03-26T09:33:24.475Z,42.99
2019-03-26T09:34:24.950Z,43.04
2019-03-26T09:35:25.420Z,43.05
2019-03-26T09:36:25.892Z,43.06
2019-03-26T09:37:26.363Z,43.00
2019-03-26T09:38:38.423Z,43.00
2019-03-26T09:39:27.390Z,43.00
2019-03-26T09:40:27.778Z,43.03
2019-03-26T09:41:28.250Z,43.06
2019-03-26T09:42:28.723Z,43.01
2019-03-26T09:43:29.199Z,43.03
2019-03-26T09:44:29.666Z,42.99
2019-03-26T09:46:30.608Z,43.02
2019-03-26T09:47:31.083Z,43.01
2019-03-26T09:48:31.621Z,43.01
2019-03-26T09:49:32.024Z,43.04
2019-03-26T09:50:32.496Z,43.06
2019-03-26T09:51:32.967Z,43.05
2019-03-26T09:52:33.438Z,43.06
2019-03-26T09:53:33.913Z,43.01
2019-03-26T09:54:34.383Z,43.05
2019-03-26T09:55:34.854Z,43.05
2019-03-26T09:56:35.327Z,43.06
2019-03-26T09:57:35.800Z,43.03
2019-03-26T09:58:36.272Z,43.00
2019-03-26T09:59:36.943Z,43.03
2019-03-26T10:00:37.324Z,42.99
2019-03-26T10:01:37.701Z,42.97
2019-03-26T10:02:38.159Z,42.98
2019-03-26T10:03:38.675Z,43.01
2019-03-26T10:04:39.101Z,43.01
2019-03-26T10:05:39.574Z,43.02
2019-03-26T10:06:40.046Z,43.01
2019-03-26T10:07:40.722Z,43.02
2019-03-26T10:08:51.842Z,43.02
2019-03-26T10:09:41.466Z,43.06
2019-03-26T10:10:41.938Z,43.01
2019-03-26T10:11:42.405Z,43.04
2019-03-26T10:12:42.878Z,43.04
2019-03-26T10:13:43.354Z,42.99
2019-03-26T10:14:43.821Z,43.02
2019-03-26T10:15:44.292Z,43.01
2019-03-26T10:16:44.763Z,43.06
2019-03-26T10:17:45.238Z,43.01
2019-03-26T10:18:45.709Z,43.01
2019-03-26T10:19:46.181Z,43.06
2019-03-26T10:20:46.655Z,43.01
2019-03-26T10:21:47.125Z,43.02
2019-03-26T10:22:47.598Z,42.98
2019-03-26T10:23:48.149Z,43.04
2019-03-26T10:24:48.540Z,43.02
2019-03-26T10:25:49.011Z,42.98
2019-03-26T10:26:49.483Z,43.00
2019-03-26T10:27:49.956Z,43.06
2019-03-26T10:28:50.437Z,43.03
2019-03-26T10:29:50.904Z,42.97
2019-03-26T10:30:51.384Z,43.02
2019-03-26T10:31:51.850Z,43.01
2019-03-26T10:32:52.314Z,43.00
2019-03-26T10:33:52.788Z,42.96
2019-03-26T10:34:53.260Z,43.02
2019-03-26T10:35:54.071Z,42.99
2019-03-26T10:36:54.202Z,43.02
2019-03-26T10:37:54.877Z,43.00
2019-03-26T10:39:05.036Z,42.98
2019-03-26T10:39:55.617Z,42.98
2019-03-26T10:40:56.092Z,43.01
2019-03-26T10:41:56.561Z,42.99
2019-03-26T10:42:57.035Z,43.00
2019-03-26T10:43:57.506Z,43.01
2019-03-26T10:44:57.978Z,43.00
2019-03-26T10:45:58.451Z,42.98
2019-03-26T10:46:58.922Z,43.04
2019-03-26T10:47:59.392Z,43.01
2019-03-26T10:48:59.867Z,43.01
2019-03-26T10:50:00.396Z,43.03
2019-03-26T10:51:00.811Z,43.02
2019-03-26T10:52:01.282Z,43.03
2019-03-26T10:53:01.754Z,43.03
2019-03-26T10:54:02.228Z,43.03
2019-03-26T10:55:02.697Z,43.03
2019-03-26T10:56:03.171Z,43.03
2019-03-26T10:57:03.641Z,43.02
2019-03-26T10:58:04.113Z,43.05
2019-03-26T10:59:04.585Z,43.05
2019-03-26T11:00:05.057Z,43.05
2019-03-26T11:01:05.530Z,43.06
2019-03-26T11:02:06.001Z,43.03
2019-03-26T11:03:06.471Z,43.00
2019-03-26T11:04:07.872Z,43.04
2019-03-26T11:05:07.416Z,43.05
2019-03-26T11:06:07.888Z,43.09
2019-03-26T11:07:08.362Z,43.03
2019-03-26T11:08:08.835Z,43.06
2019-03-26T11:09:19.792Z,43.05
2019-03-26T11:10:09.775Z,43.06
2019-03-26T11:11:10.248Z,43.08
2019-03-26T11:12:10.720Z,43.06
2019-03-26T11:13:11.196Z,43.07
2019-03-26T11:14:11.668Z,43.06
2019-03-26T11:15:12.137Z,43.04
2019-03-26T11:16:12.612Z,43.07
2019-03-26T11:17:13.080Z,43.01
2019-03-26T11:18:13.551Z,43.04
2019-03-26T11:19:14.024Z,43.04
2019-03-26T11:20:14.495Z,43.04
2019-03-26T11:21:14.967Z,43.06
2019-03-26T11:22:15.439Z,43.10
2019-03-26T11:23:15.914Z,43.05
2019-03-26T11:24:16.383Z,43.04
2019-03-26T11:25:16.854Z,43.01
2019-03-26T11:26:17.337Z,43.06
2019-03-26T11:27:17.803Z,43.04
2019-03-26T11:28:18.270Z,43.08
2019-03-26T11:29:18.742Z,43.04
2019-03-26T11:30:19.216Z,43.05
2019-03-26T11:31:19.688Z,43.02
2019-03-26T11:32:20.162Z,43.04
2019-03-26T11:33:20.631Z,43.06
2019-03-26T11:34:21.102Z,43.04
2019-03-26T11:35:21.578Z,43.03
2019-03-26T11:36:22.047Z,43.04
2019-03-26T11:37:22.517Z,43.05
2019-03-26T11:38:22.990Z,43.04
2019-03-26T11:39:32.722Z,43.03
2019-03-26T11:40:23.934Z,43.07
2019-03-26T11:41:24.404Z,43.07
2019-03-26T11:42:24.880Z,43.06
2019-03-26T11:43:25.355Z,43.03
2019-03-26T11:44:26.126Z,43.06
2019-03-26T11:45:26.293Z,43.03
2019-03-26T11:46:26.765Z,43.00
2019-03-26T11:47:27.241Z,43.03
2019-03-26T11:48:27.708Z,43.01
2019-03-26T11:49:28.183Z,43.05
2019-03-26T11:50:28.652Z,43.08
2019-03-26T11:51:29.125Z,43.04
2019-03-26T11:52:29.597Z,43.00
2019-03-26T11:53:30.068Z,43.03
2019-03-26T11:54:30.545Z,43.05
2019-03-26T11:55:31.013Z,43.03
2019-03-26T11:56:31.493Z,43.04
2019-03-26T11:57:31.955Z,43.01
2019-03-26T11:58:32.427Z,43.03
2019-03-26T11:59:32.900Z,43.01
2019-03-26T12:00:33.373Z,43.02
2019-03-26T12:01:33.842Z,43.01
2019-03-26T12:02:34.424Z,43.03
2019-03-26T12:03:34.788Z,43.02
2019-03-26T12:04:35.258Z,42.95
2019-03-26T12:05:35.733Z,42.96
2019-03-26T12:06:36.205Z,42.98
2019-03-26T12:07:36.680Z,42.98
2019-03-26T12:08:37.146Z,42.96
2019-03-26T12:09:46.266Z,42.94
2019-03-26T12:10:38.094Z,42.95
2019-03-26T12:11:38.566Z,42.95
2019-03-26T12:12:39.034Z,42.97
2019-03-26T12:13:39.506Z,42.95
2019-03-26T12:14:39.988Z,42.97
2019-03-26T12:15:40.450Z,42.95
2019-03-26T12:16:40.923Z,43.03
2019-03-26T12:17:41.395Z,43.10
2019-03-26T12:18:41.869Z,43.19
2019-03-26T12:19:42.341Z,43.31
2019-03-26T12:20:42.811Z,43.36
2019-03-26T12:21:43.281Z,43.41
2019-03-26T12:22:43.756Z,43.52
2019-03-26T12:23:44.227Z,43.58
2019-03-26T12:24:44.697Z,43.64
2019-03-26T12:25:45.176Z,43.69
2019-03-26T12:26:45.640Z,43.77
2019-03-26T12:27:46.117Z,43.89
2019-03-26T12:28:46.583Z,44.00
2019-03-26T12:29:47.055Z,44.10
2019-03-26T12:30:47.526Z,44.19
2019-03-26T12:31:47.994Z,44.28
2019-03-26T12:32:48.464Z,44.37
2019-03-26T12:33:48.936Z,44.47
2019-03-26T12:34:49.404Z,44.54
2019-03-26T12:35:49.878Z,44.60
2019-03-26T12:36:50.347Z,44.67
2019-03-26T12:37:50.812Z,44.69
2019-03-26T12:38:51.280Z,44.71
2019-03-26T12:39:59.454Z,44.78
2019-03-26T12:40:52.217Z,44.81
2019-03-26T12:41:52.685Z,44.83
2019-03-26T12:42:53.154Z,44.80
2019-03-26T12:43:53.623Z,44.78
2019-03-26T12:44:54.090Z,44.77
2019-03-26T12:45:54.558Z,44.71
2019-03-26T12:46:58.137Z,44.65
2019-03-26T12:47:55.495Z,44.50
2019-03-26T12:48:55.963Z,44.32
2019-03-26T12:49:56.429Z,44.17
2019-03-26T12:50:56.900Z,44.03
2019-03-26T12:51:57.371Z,43.95
2019-03-26T12:52:57.837Z,43.82
2019-03-26T12:53:58.302Z,43.74
2019-03-26T12:54:58.777Z,43.66
2019-03-26T12:55:59.239Z,43.56
2019-03-26T12:56:59.733Z,43.50
2019-03-26T12:58:00.179Z,43.42
2019-03-26T12:59:00.641Z,43.38
2019-03-26T13:00:01.110Z,43.28
2019-03-26T13:01:01.577Z,43.22
2019-03-26T13:02:02.046Z,43.15
2019-03-26T13:03:02.515Z,43.14
2019-03-26T13:04:12.430Z,43.09
2019-03-26T13:05:03.452Z,43.05
2019-03-26T13:06:03.919Z,43.00